createdAt,value
2019-06-20T00:03:40.480Z,63.30
2019-06-20T00:07:45.047Z,63.20
2019-06-20T00:11:49.641Z,63.50
2019-06-20T00:15:54.380Z,63.00
2019-06-20T00:19:58.917Z,63.50
2019-06-20T00:24:03.474Z,63.70
2019-06-20T00:28:08.064Z,63.40
2019-06-20T00:32:12.641Z,63.50
2019-06-20T00:36:17.337Z,63.40
2019-06-20T00:40:21.917Z,63.70
2019-06-20T00:44:26.544Z,63.50
2019-06-20T00:48:31.088Z,61.60
2019-06-20T00:52:35.676Z,63.50
2019-06-20T00:56:40.265Z,63.70
2019-06-20T01:00:44.820Z,63.90
2019-06-20T01:04:49.356Z,63.90
2019-06-20T01:08:53.941Z,63.70
2019-06-20T01:12:58.501Z,63.70
2019-06-20T01:17:03.112Z,63.70
2019-06-20T01:21:09.070Z,63.60
2019-06-20T01:25:13.784Z,63.60
2019-06-20T01:29:18.344Z,63.60
2019-06-20T01:33:22.913Z,63.90
2019-06-20T01:37:27.475Z,63.90
2019-06-20T01:41:32.033Z,64.10
2019-06-20T01:45:36.563Z,64.00
2019-06-20T01:49:41.130Z,64.20
2019-06-20T01:53:45.707Z,64.50
2019-06-20T01:57:50.249Z,64.50
2019-06-20T02:01:54.842Z,64.50
2019-06-20T02:05:59.384Z,65.80
2019-06-20T02:10:04.391Z,65.00
2019-06-20T02:14:09.002Z,64.80
2019-06-20T02:18:13.595Z,64.80
2019-06-20T02:22:18.256Z,65.30
2019-06-20T02:26:22.794Z,65.40
2019-06-20T02:30:27.962Z,64.90
2019-06-20T02:34:32.516Z,65.70
2019-06-20T02:38:37.090Z,65.00
2019-06-20T02:42:41.647Z,65.00
2019-06-20T02:46:46.165Z,65.30
2019-06-20T02:50:50.703Z,65.70
2019-06-20T02:54:55.268Z,65.00
2019-06-20T02:58:59.818Z,66.10
2019-06-20T03:03:04.482Z,65.50
2019-06-20T03:07:09.027Z,66.60
2019-06-20T03:11:13.616Z,68.70
2019-06-20T03:15:18.206Z,68.50
2019-06-20T03:19:22.785Z,67.60
2019-06-20T03:23:27.450Z,68.30
2019-06-20T03:27:31.981Z,68.60
2019-06-20T03:31:36.551Z,68.40
2019-06-20T03:35:41.102Z,68.00
2019-06-20T03:39:45.664Z,67.20
2019-06-20T03:43:50.294Z,67.80
2019-06-20T03:47:54.855Z,68.70
2019-06-20T03:51:59.388Z,67.60
2019-06-20T03:56:03.950Z,67.40
2019-06-20T04:00:09.127Z,68.10
2019-06-20T04:04:13.687Z,67.90
2019-06-20T04:08:18.248Z,68.00
2019-06-20T04:12:22.807Z,66.50
2019-06-20T04:16:27.399Z,67.50
2019-06-20T04:20:31.960Z,67.80
2019-06-20T04:24:36.526Z,68.40
2019-06-20T04:28:41.087Z,68.00
2019-06-20T04:32:45.607Z,72.70
2019-06-20T04:36:50.161Z,69.00
2019-06-20T04:40:54.727Z,68.60
2019-06-20T04:45:00.907Z,69.80
2019-06-20T04:49:05.548Z,69.30
2019-06-20T04:53:10.083Z,70.90
2019-06-20T04:57:14.651Z,71.40
2019-06-20T05:01:19.232Z,71.20
2019-06-20T05:05:23.888Z,70.00
2019-06-20T05:09:28.466Z,71.90
2019-06-20T05:13:33.021Z,74.50
2019-06-20T05:17:37.589Z,75.30
2019-06-20T05:21:42.153Z,72.70
2019-06-20T05:25:46.713Z,72.30
2019-06-20T05:29:51.281Z,74.20
2019-06-20T05:33:55.909Z,72.80
2019-06-20T05:38:00.469Z,72.80
2019-06-20T05:42:05.072Z,74.30
2019-06-20T05:46:11.268Z,73.00
2019-06-20T05:50:16.397Z,72.00
2019-06-20T05:54:20.934Z,76.20
2019-06-20T05:58:25.490Z,72.90
2019-06-20T06:02:30.050Z,72.70
2019-06-20T06:06:34.633Z,73.10
2019-06-20T06:10:39.181Z,73.80
2019-06-20T06:14:43.778Z,73.70
2019-06-20T06:18:48.328Z,71.80
2019-06-20T06:22:52.889Z,71.90
2019-06-20T06:26:59.926Z,72.80
2019-06-20T06:31:03.685Z,72.40
2019-06-20T06:35:08.862Z,72.70
2019-06-20T06:39:13.406Z,74.00
2019-06-20T06:43:17.972Z,72.50
2019-06-20T06:47:22.546Z,76.30
2019-06-20T06:51:27.102Z,78.00
2019-06-20T06:55:31.659Z,78.20
2019-06-20T06:59:36.181Z,77.10
2019-06-20T07:03:40.745Z,74.30
2019-06-20T07:07:45.312Z,72.20
2019-06-20T07:11:50.083Z,72.10
2019-06-20T07:15:54.666Z,71.00
2019-06-20T07:19:59.184Z,70.90
2019-06-20T07:24:03.849Z,71.90
2019-06-20T07:28:08.454Z,71.90
2019-06-20T07:32:13.158Z,71.80
2019-06-20T07:36:17.737Z,73.00
2019-06-20T07:40:22.477Z,72.60
2019-06-20T07:44:27.054Z,73.20
2019-06-20T07:48:31.831Z,73.10
2019-06-20T07:52:36.487Z,72.50
2019-06-20T07:56:41.112Z,73.80
2019-06-20T08:00:45.774Z,75.10
2019-06-20T08:04:50.400Z,73.90
2019-06-20T08:08:55.439Z,72.50
2019-06-20T08:13:00.075Z,70.20
2019-06-20T08:17:05.029Z,70.10
2019-06-20T08:21:09.577Z,69.40
2019-06-20T08:25:14.863Z,68.20
2019-06-20T08:29:21.406Z,67.70
2019-06-20T08:33:25.692Z,67.50
2019-06-20T08:37:30.245Z,68.80
2019-06-20T08:41:34.814Z,69.50
2019-06-20T08:45:40.321Z,67.60
2019-06-20T08:49:44.917Z,66.80
2019-06-20T08:53:49.548Z,67.10
2019-06-20T08:57:55.720Z,68.00
2019-06-20T09:06:06.908Z,68.00
2019-06-20T09:10:12.328Z,69.10
2019-06-20T09:14:17.008Z,68.80
2019-06-20T09:18:21.641Z,67.80
2019-06-20T09:22:26.722Z,66.90
2019-06-20T09:26:31.420Z,63.70
2019-06-20T09:30:36.820Z,63.70
2019-06-20T09:34:41.429Z,63.00
2019-06-20T09:38:46.009Z,62.40
2019-06-20T09:42:51.687Z,63.10
2019-06-20T09:46:58.100Z,63.40
2019-06-20T09:51:02.896Z,63.50
2019-06-20T09:55:08.492Z,64.90
2019-06-20T09:59:26.928Z,65.00
2019-06-20T10:03:19.254Z,65.30
2019-06-20T10:07:23.834Z,65.50
2019-06-20T10:11:28.421Z,65.60
2019-06-20T10:15:34.621Z,66.00
2019-06-20T10:19:39.203Z,66.10
2019-06-20T10:23:46.041Z,66.10
2019-06-20T10:27:51.292Z,65.50
2019-06-20T10:31:57.175Z,65.40
2019-06-20T10:36:01.921Z,65.60
2019-06-20T10:40:07.922Z,66.40
2019-06-20T10:44:12.503Z,66.30
2019-06-20T10:48:17.090Z,65.90
2019-06-20T10:56:25.652Z,66.70
2019-06-20T11:00:32.161Z,65.30
2019-06-20T11:04:36.745Z,65.40
2019-06-20T11:08:41.797Z,65.80
2019-06-20T11:12:53.744Z,66.60
2019-06-20T11:16:53.867Z,65.10
2019-06-20T11:20:58.391Z,66.00
2019-06-20T11:25:02.941Z,65.80
2019-06-20T11:29:07.600Z,66.70
2019-06-20T11:33:12.158Z,66.60
2019-06-20T11:37:16.733Z,65.90
2019-06-20T11:42:32.570Z,64.70
2019-06-20T11:46:38.487Z,66.00
2019-06-20T11:50:43.092Z,66.50
2019-06-20T11:54:47.637Z,65.90
2019-06-20T11:58:52.199Z,65.50
2019-06-20T12:02:56.776Z,66.10
2019-06-20T12:07:01.342Z,64.80
2019-06-20T12:11:05.897Z,64.30
2019-06-20T12:15:10.796Z,65.40
2019-06-20T12:19:15.445Z,64.40
2019-06-20T12:23:19.998Z,65.30
2019-06-20T12:27:24.557Z,65.00
2019-06-20T12:31:29.087Z,63.30
2019-06-20T12:35:33.653Z,62.10
2019-06-20T12:39:39.211Z,62.80
2019-06-20T12:43:44.503Z,60.60
2019-06-20T12:47:50.131Z,62.50
2019-06-20T12:51:54.714Z,62.90
2019-06-20T12:55:59.283Z,63.60
2019-06-20T13:00:04.099Z,64.00
2019-06-20T13:04:08.654Z,61.10
2019-06-20T13:08:13.713Z,63.20
2019-06-20T13:12:18.371Z,61.50
2019-06-20T13:16:22.991Z,61.80
2019-06-20T13:20:27.550Z,60.80
2019-06-20T13:24:32.108Z,61.10
2019-06-20T13:28:54.077Z,59.50
2019-06-20T13:32:43.809Z,60.00
2019-06-20T13:36:49.254Z,60.70
2019-06-20T13:40:53.809Z,60.80
2019-06-20T13:44:58.380Z,61.10
2019-06-20T13:49:02.964Z,60.60
2019-06-20T13:53:07.518Z,61.10
2019-06-20T13:57:12.094Z,60.50
2019-06-20T14:01:16.704Z,59.50
2019-06-20T14:05:21.387Z,59.20
2019-06-20T14:09:25.983Z,59.70
2019-06-20T14:13:30.551Z,60.50
2019-06-20T14:17:35.130Z,59.80
2019-06-20T14:21:39.711Z,60.60
2019-06-20T14:25:44.293Z,60.50
2019-06-20T14:29:49.162Z,60.50
2019-06-20T14:33:53.841Z,59.60
2019-06-20T14:37:58.423Z,59.30
2019-06-20T14:42:02.963Z,59.30
2019-06-20T14:46:07.557Z,59.50
2019-06-20T14:50:12.653Z,59.30
2019-06-20T14:54:19.680Z,59.30
2019-06-20T14:58:23.702Z,59.30
2019-06-20T15:02:38.084Z,58.70
2019-06-20T15:06:34.521Z,59.50
2019-06-20T15:10:39.090Z,59.10
2019-06-20T15:14:44.502Z,59.80
2019-06-20T15:18:52.388Z,60.00
2019-06-20T15:22:56.715Z,59.20
2019-06-20T15:27:01.448Z,59.40
2019-06-20T15:31:06.025Z,59.60
2019-06-20T15:35:11.266Z,59.70
2019-06-20T15:39:15.828Z,59.60
2019-06-20T15:43:20.413Z,59.80
2019-06-20T15:47:24.998Z,59.10
2019-06-20T15:51:29.573Z,60.00
2019-06-20T15:55:34.262Z,58.80
2019-06-20T15:59:42.098Z,59.50
2019-06-20T16:03:45.179Z,58.90
2019-06-20T16:07:49.766Z,58.90
2019-06-20T16:11:54.387Z,59.40
2019-06-20T16:15:58.955Z,59.20
2019-06-20T16:20:03.538Z,59.10
2019-06-20T16:24:08.327Z,58.30
2019-06-20T16:28:13.233Z,57.80
2019-06-20T16:32:17.762Z,57.90
2019-06-20T16:36:22.333Z,57.40
2019-06-20T16:40:37.831Z,58.00
2019-06-20T16:44:42.480Z,57.40
2019-06-20T16:48:47.037Z,56.60
2019-06-20T16:52:51.577Z,56.70
2019-06-20T16:56:56.236Z,57.60
2019-06-20T17:01:00.790Z,56.80
2019-06-20T17:05:05.718Z,57.80
2019-06-20T17:09:10.276Z,57.80
2019-06-20T17:13:14.980Z,58.10
2019-06-20T17:17:19.509Z,57.90
2019-06-20T17:21:24.057Z,57.30
2019-06-20T17:25:28.633Z,58.10
2019-06-20T17:29:33.201Z,58.00
2019-06-20T17:33:37.772Z,58.30
2019-06-20T17:37:44.935Z,57.90
2019-06-20T17:41:55.070Z,57.90
2019-06-20T17:45:54.727Z,58.00
2019-06-20T17:49:59.302Z,58.40
2019-06-20T17:54:03.894Z,58.60
2019-06-20T17:58:08.433Z,58.30
2019-06-20T18:02:12.981Z,57.40
2019-06-20T18:06:17.545Z,57.60
2019-06-20T18:10:22.503Z,57.20
2019-06-20T18:14:27.168Z,58.10
2019-06-20T18:18:32.853Z,58.20
2019-06-20T18:22:37.369Z,58.60
2019-06-20T18:26:41.925Z,58.70
2019-06-20T18:30:46.949Z,59.20
2019-06-20T18:35:01.428Z,59.10
2019-06-20T18:38:57.680Z,59.20
2019-06-20T18:43:05.858Z,59.30
2019-06-20T18:47:11.869Z,59.80
2019-06-20T18:51:20.019Z,59.90
2019-06-20T18:55:24.514Z,60.30
2019-06-20T18:59:32.554Z,60.80
2019-06-20T19:03:35.292Z,60.80
2019-06-20T19:07:39.845Z,60.80
2019-06-20T19:11:44.454Z,60.80
2019-06-20T19:15:49.024Z,60.50
2019-06-20T19:19:53.598Z,61.70
2019-06-20T19:23:58.174Z,61.90
2019-06-20T19:28:02.857Z,61.50
2019-06-20T19:32:07.546Z,62.00
2019-06-20T19:36:12.120Z,62.10
2019-06-20T19:40:17.097Z,62.50
2019-06-20T19:44:21.646Z,62.50
2019-06-20T19:48:26.300Z,63.10
2019-06-20T19:52:30.826Z,63.00
2019-06-20T19:56:35.382Z,62.90
2019-06-20T20:00:39.933Z,62.90
2019-06-20T20:04:44.589Z,63.40
2019-06-20T20:08:49.140Z,64.10
2019-06-20T20:12:53.677Z,64.50
2019-06-20T20:16:58.263Z,64.40
2019-06-20T20:21:02.829Z,64.00
2019-06-20T20:25:07.819Z,66.40
2019-06-20T20:29:12.361Z,67.50
2019-06-20T20:33:16.920Z,69.30
2019-06-20T20:37:21.465Z,69.70
2019-06-20T20:41:27.580Z,69.70
2019-06-20T20:45:32.194Z,71.60
2019-06-20T20:49:36.705Z,71.40
2019-06-20T20:53:41.292Z,72.50
2019-06-20T20:57:45.851Z,73.00
2019-06-20T21:01:50.452Z,70.80
2019-06-20T21:05:55.013Z,70.30
2019-06-20T21:09:59.543Z,70.70
2019-06-20T21:14:04.272Z,69.40
2019-06-20T21:18:08.948Z,70.70
2019-06-20T21:22:13.492Z,69.00
2019-06-20T21:26:18.059Z,68.30
2019-06-20T21:30:22.760Z,70.00
2019-06-20T21:34:27.461Z,68.90
2019-06-20T21:38:32.021Z,69.90
2019-06-20T21:42:36.564Z,68.40
2019-06-20T21:46:41.155Z,68.70
2019-06-20T21:50:45.820Z,68.30
2019-06-20T21:54:50.377Z,68.20
2019-06-20T21:58:54.933Z,67.70
2019-06-20T22:02:59.583Z,68.50
2019-06-20T22:07:04.162Z,67.60
2019-06-20T22:11:08.680Z,67.50
2019-06-20T22:15:13.633Z,67.80
2019-06-20T22:19:18.154Z,67.80
2019-06-20T22:23:22.702Z,67.90
2019-06-20T22:27:27.308Z,70.10
2019-06-20T22:31:31.797Z,70.10
2019-06-20T22:35:36.348Z,70.00
2019-06-20T22:39:40.914Z,70.00
2019-06-20T22:43:45.508Z,70.10
2019-06-20T22:47:50.077Z,70.00
2019-06-20T22:51:54.601Z,70.00
2019-06-20T22:55:59.175Z,70.80
2019-06-20T23:00:03.750Z,70.40
2019-06-20T23:04:08.354Z,70.60
2019-06-20T23:08:12.937Z,70.90
2019-06-20T23:12:17.461Z,70.90
2019-06-20T23:19:43.591Z,70.50
2019-06-20T23:23:48.122Z,71.20
2019-06-20T23:27:52.685Z,71.30
2019-06-20T23:31:57.777Z,71.40
2019-06-20T23:36:02.377Z,71.60
2019-06-20T23:40:08.347Z,71.80
2019-06-20T23:44:13.039Z,71.90
2019-06-20T23:48:17.613Z,72.20
2019-06-20T23:52:24.734Z,72.40
2019-06-20T23:56:29.308Z,72.40
